Billings, MT

4:43 PM MST on November 25, 2014 (GMT -0700)
Downtown Billings | Change Station
CLOSE
Current Station
Personal Weather Station
Location: Billings, MT
Elevation: 3127 ft
Nearby Weather Stations
Active Advisory: Winter Weather Advisory Active Notice: Local Storm Report

Elev 3127 ft 45.78 °N, 108.50 °W | Updated 44 minutes ago

Overcast
Overcast
37.4 °F
Feels Like 30 °F
N
10.1
Wind Variable Wind from NW
Gusts 21.9 mph

Today
High -- | Low -- °F
--% Chance of Precip.
Yesterday
High -- | Low -- °F
Precip. -- in
7:27 AM 4:34 PM
Waxing Crescent, 14% visible
Pressure 30.10 in
Visibility 10.0 miles
Clouds Few 6000 ft
Overcast 10000 ft
Windchill 30 °F
Dew Point 24 °F
Humidity 56%
Rainfall -999.00 in
Snow Depth Not available.
UV 0 out of 12
Pollen .10 out of 12
Air Quality Not available.
Flu Activity Not available.
METAR KBIL 252253Z 33016G26KT 10SM FEW060 OVC100 02/M06 A3004 RMK AO2 PK WND 35039/2203 SLP193 VCSH S SHSN DSNT E-NW T00171056

More Conditions Fewer Conditions

Pressure 30.10 in
Visibility 10.0 miles
Clouds Few 6000 ft
Overcast 10000 ft
Windchill 30 °F
Dew Point 24 °F
Humidity 56%
Rainfall -999.00 in
Snow Depth Not available.
UV 0 out of 12
Pollen .10 out of 12
Air Quality Not available.
Flu Activity Not available.
METAR KBIL 252253Z 33016G26KT 10SM FEW060 OVC100 02/M06 A3004 RMK AO2 PK WND 35039/2203 SLP193 VCSH S SHSN DSNT E-NW T00171056

More Conditions Fewer Conditions

10-Day Weather Forecast

Almanac

Astronomy

Nov. 25, 2014 Rise Set
Actual Time
Civil Twilight
Nautical Twilight
Astronomical Twilight
Moon
Length of Visible Light
Length of Day
Tomorrow will be .
, % of the Moon is Illuminated

Today's Extremes

State Highs State Lows

Community

WunderPhotos

Upload Photos

1,773,624 photos uploaded!

WunderBlogs® & News

Nearby

Air Quality

  Air Quality AQ Index Pollutant
Not available.

Snow Depth

Station Depth Elevation

Earthquake Activity

City Distance Mag. Time & Date
Minimum magnitude displayed is 2.5.

Coastal Water Temperatures

Place Temperature

Nearby Weather Stations